Time;durP1;ratioP1;P1;durP2;ratioP2;P2;SDS_P1;SDS_P2;PMS_P1;PMS_P2;Temp;Humidity;BMP_temperature;BMP_pressure;BME280_temperature;BME280_humidity;BME280_pressure;Samples;Min_cycle;Max_cycle;Signal;HPM_P1;HPM_P2
2022/11/28 00:01:15;;;;;;;60.72;21.33;;;;;;;;;;5028625;28;20079;-74
2022/11/28 00:03:43;;;;;;;47.60;20.58;;;;;;;;;;5025435;28;20056;-75
2022/11/28 00:06:11;;;;;;;42.40;20.35;;;;;;;;;;5026681;28;20045;-75
2022/11/28 00:08:38;;;;;;;55.03;21.58;;;;;;;;;;5028147;28;20052;-75
2022/11/28 00:11:06;;;;;;;35.55;19.08;;;;;;;;;;5028656;28;20045;-75
2022/11/28 00:13:33;;;;;;;42.58;19.65;;;;;;;;;;5025462;28;20151;-74
2022/11/28 00:16:01;;;;;;;74.15;24.33;;;;;;;;;;5029069;28;20053;-74
2022/11/28 00:18:29;;;;;;;85.82;25.33;;;;;;;;;;5025568;28;20049;-74
2022/11/28 00:21:01;;;;;;;51.58;21.85;;;;;;;;;;5028763;28;20064;-74
2022/11/28 00:23:29;;;;;;;57.67;22.17;;;;;;;;;;5026045;28;20058;-75
2022/11/28 00:25:59;;;;;;;33.20;19.35;;;;;;;;;;5027669;28;20059;-73
2022/11/28 00:28:27;;;;;;;64.78;22.77;;;;;;;;;;5029887;28;20074;-73
2022/11/28 00:30:54;;;;;;;34.38;19.50;;;;;;;;;;5026047;28;20056;-74
2022/11/28 00:33:21;;;;;;;58.90;23.42;;;;;;;;;;5023381;28;20335;-74
2022/11/28 00:35:48;;;;;;;33.67;19.35;;;;;;;;;;5030932;28;20535;-74
2022/11/28 00:38:17;;;;;;;32.97;19.60;;;;;;;;;;5029342;28;20052;-73
2022/11/28 00:40:44;;;;;;;49.42;21.35;;;;;;;;;;5025999;28;20059;-73
2022/11/28 00:43:12;;;;;;;70.82;23.30;;;;;;;;;;5024425;28;20506;-73
2022/11/28 00:45:39;;;;;;;53.72;22.65;;;;;;;;;;5026828;28;20066;-73
2022/11/28 00:48:06;;;;;;;38.78;20.55;;;;;;;;;;5022079;28;20558;-74
2022/11/28 00:50:33;;;;;;;55.30;23.85;;;;;;;;;;5029484;28;20558;-73
2022/11/28 00:53:01;;;;;;;105.03;28.70;;;;;;;;;;5029044;28;20041;-73
2022/11/28 00:55:29;;;;;;;46.72;22.98;;;;;;;;;;5031934;28;20495;-73
2022/11/28 00:57:57;;;;;;;40.35;21.02;;;;;;;;;;5029055;28;20052;-73
2022/11/28 01:00:24;;;;;;;41.15;21.38;;;;;;;;;;5045550;28;20412;-73
2022/11/28 01:02:51;;;;;;;42.50;21.02;;;;;;;;;;5027003;28;20049;-72
2022/11/28 01:05:19;;;;;;;35.35;20.92;;;;;;;;;;5030520;28;20056;-73
2022/11/28 01:07:46;;;;;;;34.88;19.80;;;;;;;;;;5026696;28;20564;-72
2022/11/28 01:10:13;;;;;;;64.82;24.42;;;;;;;;;;5037203;28;20045;-72
2022/11/28 01:12:42;;;;;;;35.47;20.20;;;;;;;;;;5023626;28;20443;-72
2022/11/28 01:15:10;;;;;;;42.03;21.83;;;;;;;;;;5025555;28;20056;-73
2022/11/28 01:17:37;;;;;;;120.47;29.05;;;;;;;;;;5021026;28;20052;-73
2022/11/28 01:20:05;;;;;;;130.27;31.98;;;;;;;;;;5026337;28;20045;-72
2022/11/28 01:22:32;;;;;;;49.20;24.20;;;;;;;;;;5027992;28;20053;-72
2022/11/28 01:25:00;;;;;;;52.20;23.27;;;;;;;;;;5031863;28;20053;-73
2022/11/28 01:27:27;;;;;;;56.72;23.95;;;;;;;;;;5027855;28;20457;-72
2022/11/28 01:29:55;;;;;;;52.00;24.30;;;;;;;;;;5030726;28;20056;-72
2022/11/28 01:32:23;;;;;;;43.28;22.85;;;;;;;;;;5029621;28;20060;-73
2022/11/28 01:34:50;;;;;;;34.67;20.63;;;;;;;;;;5030215;28;20088;-73
2022/11/28 01:37:17;;;;;;;43.97;22.13;;;;;;;;;;5028322;28;20728;-72
2022/11/28 01:39:44;;;;;;;41.70;22.08;;;;;;;;;;5028009;28;20381;-72
2022/11/28 01:42:16;;;;;;;35.15;19.42;;;;;;;;;;5030879;28;20063;-72
2022/11/28 01:45:06;;;;;;;117.75;29.48;;;;;;;;;;5050334;28;20077;-73
2022/11/28 01:47:34;;;;;;;80.35;25.80;;;;;;;;;;5030375;28;20064;-72
2022/11/28 01:50:01;;;;;;;46.95;21.40;;;;;;;;;;5030485;28;20083;-72
2022/11/28 01:52:29;;;;;;;40.47;22.65;;;;;;;;;;5033215;28;20060;-72
2022/11/28 01:54:58;;;;;;;33.60;19.92;;;;;;;;;;5033791;28;20053;-72
2022/11/28 01:57:26;;;;;;;68.70;24.23;;;;;;;;;;5033664;28;20071;-73
2022/11/28 01:59:56;;;;;;;36.53;20.58;;;;;;;;;;5032274;28;20045;-72
2022/11/28 02:02:27;;;;;;;40.05;21.77;;;;;;;;;;5028336;28;20052;-73
2022/11/28 02:04:55;;;;;;;34.97;19.98;;;;;;;;;;5045872;28;20049;-72
2022/11/28 02:07:22;;;;;;;34.55;20.35;;;;;;;;;;5028652;28;20553;-72
2022/11/28 02:09:49;;;;;;;68.78;23.45;;;;;;;;;;5032349;28;20106;-73
2022/11/28 02:12:23;;;;;;;52.17;22.88;;;;;;;;;;5031657;28;20053;-72
2022/11/28 02:14:58;;;;;;;40.80;22.27;;;;;;;;;;5031163;28;20053;-72
2022/11/28 02:17:32;;;;;;;39.78;21.38;;;;;;;;;;5030655;28;20514;-73
2022/11/28 02:20:14;;;;;;;32.15;19.65;;;;;;;;;;5031387;28;20052;-72
2022/11/28 02:22:42;;;;;;;43.97;21.70;;;;;;;;;;5012914;28;20053;-72
2022/11/28 02:25:21;;;;;;;41.03;21.05;;;;;;;;;;5031517;28;20053;-72
2022/11/28 02:28:03;;;;;;;32.78;20.33;;;;;;;;;;5030490;28;20068;-72
2022/11/28 02:30:34;;;;;;;38.13;21.00;;;;;;;;;;5024052;28;20790;-72
2022/11/28 02:33:07;;;;;;;66.75;23.05;;;;;;;;;;5028287;28;20052;-72
2022/11/28 02:35:39;;;;;;;37.47;21.55;;;;;;;;;;5010966;28;20050;-72
2022/11/28 02:38:13;;;;;;;45.90;22.65;;;;;;;;;;5000245;28;20058;-72
2022/11/28 02:40:42;;;;;;;39.80;22.05;;;;;;;;;;5004026;28;20530;-72
2022/11/28 02:43:14;;;;;;;59.05;23.65;;;;;;;;;;5006715;28;20046;-72
2022/11/28 02:45:46;;;;;;;37.97;20.85;;;;;;;;;;5005496;28;20049;-72
2022/11/28 02:48:19;;;;;;;33.25;20.33;;;;;;;;;;5006920;28;20724;-71
2022/11/28 02:50:51;;;;;;;39.97;22.10;;;;;;;;;;4992556;28;20050;-71
2022/11/28 02:53:20;;;;;;;69.47;24.33;;;;;;;;;;5000399;28;20111;-72
2022/11/28 02:55:48;;;;;;;44.28;21.70;;;;;;;;;;5006028;28;20081;-72
2022/11/28 02:58:17;;;;;;;88.47;26.52;;;;;;;;;;5005554;28;20108;-72
2022/11/28 03:00:46;;;;;;;41.05;22.42;;;;;;;;;;5001953;28;20062;-71
2022/11/28 03:03:26;;;;;;;38.40;21.48;;;;;;;;;;4993952;28;20424;-72
2022/11/28 03:05:58;;;;;;;42.75;22.90;;;;;;;;;;5006944;28;20057;-72
2022/11/28 03:08:35;;;;;;;46.55;23.90;;;;;;;;;;5004859;28;20053;-72
2022/11/28 03:11:04;;;;;;;35.60;21.38;;;;;;;;;;5000951;28;20072;-72
2022/11/28 03:13:37;;;;;;;85.55;24.80;;;;;;;;;;4999237;28;20069;-72
2022/11/28 03:16:10;;;;;;;36.97;21.80;;;;;;;;;;5003939;28;20060;-72
2022/11/28 03:18:40;;;;;;;38.17;22.15;;;;;;;;;;4999596;28;20064;-72
2022/11/28 03:21:10;;;;;;;46.30;22.95;;;;;;;;;;5000799;28;20050;-72
2022/11/28 03:23:43;;;;;;;39.03;22.35;;;;;;;;;;5004647;28;20053;-72
2022/11/28 03:26:12;;;;;;;44.10;22.90;;;;;;;;;;5002195;28;20049;-71
2022/11/28 03:28:41;;;;;;;58.97;23.75;;;;;;;;;;5006159;28;20132;-72
2022/11/28 03:31:10;;;;;;;44.88;21.00;;;;;;;;;;5003640;28;20050;-72
2022/11/28 03:33:40;;;;;;;65.28;23.33;;;;;;;;;;5004620;28;20074;-71
2022/11/28 03:36:09;;;;;;;33.00;20.25;;;;;;;;;;5022135;28;20053;-72
2022/11/28 03:38:38;;;;;;;37.60;20.58;;;;;;;;;;5023306;28;20053;-72
2022/11/28 03:41:08;;;;;;;35.17;20.65;;;;;;;;;;5025323;28;20483;-72
2022/11/28 03:43:39;;;;;;;33.33;20.73;;;;;;;;;;5023882;28;20046;-72
2022/11/28 03:46:09;;;;;;;39.42;21.67;;;;;;;;;;5015884;28;20061;-72
2022/11/28 03:48:40;;;;;;;57.47;24.05;;;;;;;;;;5023478;28;20056;-72
2022/11/28 03:51:10;;;;;;;32.58;20.27;;;;;;;;;;5025237;28;20045;-71
2022/11/28 03:53:42;;;;;;;61.63;24.73;;;;;;;;;;5024596;28;20053;-71
2022/11/28 03:56:11;;;;;;;32.47;20.70;;;;;;;;;;5022553;28;20053;-71
2022/11/28 03:58:41;;;;;;;33.55;20.48;;;;;;;;;;5026586;28;20048;-72
2022/11/28 04:01:09;;;;;;;37.20;21.80;;;;;;;;;;5024321;28;20050;-71
2022/11/28 04:03:41;;;;;;;34.78;20.40;;;;;;;;;;5024848;28;20060;-71
2022/11/28 04:06:15;;;;;;;36.03;20.30;;;;;;;;;;5016264;28;20049;-71
2022/11/28 04:08:42;;;;;;;;;;;;;;;;;;5024927;28;20049;-70
2022/11/28 04:11:13;;;;;;;35.92;20.20;;;;;;;;;;5022728;28;19921;-71
2022/11/28 04:13:43;;;;;;;34.35;20.88;;;;;;;;;;5022251;28;20050;-72
2022/11/28 04:16:13;;;;;;;83.25;24.65;;;;;;;;;;5024180;28;20653;-71
2022/11/28 04:18:47;;;;;;;71.57;25.27;;;;;;;;;;5022447;28;20056;-71
2022/11/28 04:21:16;;;;;;;32.95;20.85;;;;;;;;;;5019876;28;20057;-71
2022/11/28 04:23:44;;;;;;;33.30;21.10;;;;;;;;;;5024174;28;20084;-70
2022/11/28 04:26:14;;;;;;;109.47;30.08;;;;;;;;;;5020132;28;20061;-71
2022/11/28 04:28:42;;;;;;;62.97;24.73;;;;;;;;;;5025075;28;20045;-71
2022/11/28 04:31:10;;;;;;;48.13;23.40;;;;;;;;;;5019923;28;20056;-71
2022/11/28 04:33:40;;;;;;;33.58;20.73;;;;;;;;;;5018605;28;20061;-71
2022/11/28 04:36:11;;;;;;;30.83;19.90;;;;;;;;;;5020681;28;20068;-71
2022/11/28 04:38:39;;;;;;;63.92;25.10;;;;;;;;;;5026167;28;20088;-72
2022/11/28 04:41:08;;;;;;;35.63;22.13;;;;;;;;;;5022282;28;20049;-71
2022/11/28 04:43:38;;;;;;;40.15;21.77;;;;;;;;;;5023583;28;20057;-71
2022/11/28 04:46:08;;;;;;;38.60;22.02;;;;;;;;;;5018213;28;20431;-71
2022/11/28 04:48:35;;;;;;;60.90;24.80;;;;;;;;;;5022401;28;20068;-71
2022/11/28 04:51:10;;;;;;;59.20;24.23;;;;;;;;;;5025697;28;20045;-71
2022/11/28 04:53:43;;;;;;;35.28;21.15;;;;;;;;;;5020916;28;20053;-71
2022/11/28 04:56:13;;;;;;;34.90;21.20;;;;;;;;;;5021864;28;20057;-72
2022/11/28 04:58:42;;;;;;;37.15;21.60;;;;;;;;;;5025986;28;20049;-72
2022/11/28 05:01:10;;;;;;;37.55;21.67;;;;;;;;;;5030159;28;20671;-72
2022/11/28 05:03:38;;;;;;;75.43;27.13;;;;;;;;;;5029472;28;20042;-71
2022/11/28 05:06:06;;;;;;;39.03;21.63;;;;;;;;;;5027986;28;20064;-71
2022/11/28 05:08:33;;;;;;;41.35;22.98;;;;;;;;;;5040995;28;20057;-71
2022/11/28 05:11:02;;;;;;;47.22;23.15;;;;;;;;;;5031002;28;20060;-71
2022/11/28 05:13:29;;;;;;;46.65;23.15;;;;;;;;;;5026408;28;20053;-71
2022/11/28 05:16:02;;;;;;;94.03;27.90;;;;;;;;;;5034176;28;20076;-71
2022/11/28 05:18:29;;;;;;;36.92;21.15;;;;;;;;;;5034243;28;20164;-71
2022/11/28 05:20:58;;;;;;;42.90;21.58;;;;;;;;;;5033178;28;20042;-72
2022/11/28 05:23:26;;;;;;;50.92;23.80;;;;;;;;;;5035594;28;20472;-71
2022/11/28 05:25:53;;;;;;;45.88;22.30;;;;;;;;;;5031701;28;20061;-72
2022/11/28 05:28:21;;;;;;;44.08;21.95;;;;;;;;;;5039776;28;20052;-71
2022/11/28 05:30:56;;;;;;;41.28;21.92;;;;;;;;;;5032712;28;20488;-72
2022/11/28 05:33:23;;;;;;;51.78;22.55;;;;;;;;;;5037485;28;20060;-72
2022/11/28 05:35:51;;;;;;;41.33;21.63;;;;;;;;;;5048912;28;20053;-71
2022/11/28 05:38:18;;;;;;;41.85;20.50;;;;;;;;;;5059139;28;20045;-72
2022/11/28 05:40:45;;;;;;;41.83;20.77;;;;;;;;;;5035279;28;20063;-71
2022/11/28 05:43:12;;;;;;;39.33;19.58;;;;;;;;;;5038960;28;20411;-72
2022/11/28 05:45:41;;;;;;;38.10;20.25;;;;;;;;;;5051641;28;20689;-71
2022/11/28 05:48:09;;;;;;;41.85;20.42;;;;;;;;;;5039495;28;20049;-71
2022/11/28 05:50:38;;;;;;;41.47;20.45;;;;;;;;;;5034075;28;20045;-72
2022/11/28 05:53:06;;;;;;;41.47;20.25;;;;;;;;;;5031749;28;20053;-72
2022/11/28 05:55:33;;;;;;;42.00;20.52;;;;;;;;;;5036642;28;20568;-71
2022/11/28 05:58:00;;;;;;;38.78;19.92;;;;;;;;;;5038336;28;20088;-72
2022/11/28 06:00:27;;;;;;;38.40;19.92;;;;;;;;;;5034580;28;20455;-71
2022/11/28 06:02:56;;;;;;;40.95;17.90;;;;;;;;;;5036887;28;20061;-72
2022/11/28 06:05:23;;;;;;;37.45;18.80;;;;;;;;;;5035466;28;20049;-71
2022/11/28 06:07:50;;;;;;;73.60;22.15;;;;;;;;;;5030654;28;20084;-71
2022/11/28 06:10:18;;;;;;;48.95;19.88;;;;;;;;;;5031383;28;20052;-71
2022/11/28 06:12:45;;;;;;;38.70;17.10;;;;;;;;;;5029420;28;20075;-71
2022/11/28 06:15:13;;;;;;;52.70;18.23;;;;;;;;;;5031167;28;20044;-71
2022/11/28 06:17:40;;;;;;;59.33;18.90;;;;;;;;;;5028596;28;20403;-71
2022/11/28 06:20:09;;;;;;;34.08;17.08;;;;;;;;;;5048444;28;20057;-72
2022/11/28 06:22:36;;;;;;;53.38;18.05;;;;;;;;;;5028004;28;20056;-70
2022/11/28 06:25:03;;;;;;;35.45;16.38;;;;;;;;;;5051682;28;20059;-70
2022/11/28 06:27:31;;;;;;;32.88;15.43;;;;;;;;;;5033604;28;20057;-71
2022/11/28 06:29:58;;;;;;;37.60;15.27;;;;;;;;;;5036850;28;20411;-70
2022/11/28 06:32:25;;;;;;;27.50;13.73;;;;;;;;;;5039120;28;20056;-71
2022/11/28 06:34:52;;;;;;;26.83;12.40;;;;;;;;;;5052678;28;20049;-71
2022/11/28 06:37:21;;;;;;;38.83;13.82;;;;;;;;;;5033333;28;20057;-70
2022/11/28 06:39:50;;;;;;;35.55;13.40;;;;;;;;;;5032486;28;20056;-71
2022/11/28 06:42:17;;;;;;;23.55;12.45;;;;;;;;;;5033436;28;20044;-70
2022/11/28 06:44:44;;;;;;;24.40;12.65;;;;;;;;;;5051147;28;20064;-70
2022/11/28 06:47:11;;;;;;;39.80;15.30;;;;;;;;;;5051082;28;20084;-71
2022/11/28 06:49:39;;;;;;;50.95;16.27;;;;;;;;;;5035264;28;20045;-71
2022/11/28 06:52:06;;;;;;;26.98;14.63;;;;;;;;;;5034641;28;20057;-71
2022/11/28 06:54:35;;;;;;;25.20;14.10;;;;;;;;;;5049466;28;20056;-70
2022/11/28 06:57:02;;;;;;;26.55;14.00;;;;;;;;;;5042968;28;20084;-71
2022/11/28 06:59:29;;;;;;;38.35;14.65;;;;;;;;;;5029083;28;20064;-70
2022/11/28 07:02:00;;;;;;;22.10;13.30;;;;;;;;;;5034703;28;20083;-71
2022/11/28 07:04:27;;;;;;;26.27;13.20;;;;;;;;;;5049501;28;20044;-71
2022/11/28 07:06:54;;;;;;;29.05;13.77;;;;;;;;;;5036504;28;20060;-71
2022/11/28 07:09:22;;;;;;;43.55;14.82;;;;;;;;;;5035078;28;20459;-71
2022/11/28 07:11:50;;;;;;;24.13;13.50;;;;;;;;;;5043564;28;20134;-71
2022/11/28 07:14:18;;;;;;;27.13;15.60;;;;;;;;;;5045735;28;20040;-70
2022/11/28 07:16:46;;;;;;;42.83;15.77;;;;;;;;;;5027788;28;20044;-70
2022/11/28 07:19:13;;;;;;;34.45;17.08;;;;;;;;;;5048550;28;20084;-71
2022/11/28 07:21:40;;;;;;;95.55;23.77;;;;;;;;;;5030407;28;20194;-71
2022/11/28 07:24:08;;;;;;;51.45;19.48;;;;;;;;;;5047005;28;20052;-70
2022/11/28 07:26:36;;;;;;;57.95;20.05;;;;;;;;;;5045080;28;20490;-71
2022/11/28 07:29:06;;;;;;;35.53;18.52;;;;;;;;;;5048015;28;20051;-70
2022/11/28 07:31:33;;;;;;;32.97;18.95;;;;;;;;;;5026463;28;20045;-71
2022/11/28 07:34:03;;;;;;;33.63;18.23;;;;;;;;;;5028149;28;20061;-71
2022/11/28 07:36:30;;;;;;;37.92;19.85;;;;;;;;;;5046420;28;20060;-72
2022/11/28 07:38:58;;;;;;;35.00;20.15;;;;;;;;;;5044431;28;20045;-71
2022/11/28 07:41:26;;;;;;;37.42;19.50;;;;;;;;;;5030759;28;20052;-71
2022/11/28 07:43:54;;;;;;;40.58;19.90;;;;;;;;;;5047264;28;20049;-70
2022/11/28 07:46:23;;;;;;;36.50;18.95;;;;;;;;;;5028270;28;20542;-71
2022/11/28 07:48:50;;;;;;;39.63;19.42;;;;;;;;;;5044936;28;20061;-70
2022/11/28 07:51:18;;;;;;;60.55;21.10;;;;;;;;;;5045284;28;20078;-70
2022/11/28 07:53:46;;;;;;;43.13;20.27;;;;;;;;;;5027481;28;20061;-71
2022/11/28 07:56:14;;;;;;;42.63;20.17;;;;;;;;;;5031211;28;20041;-71
2022/11/28 07:58:42;;;;;;;41.38;20.52;;;;;;;;;;5047234;28;20136;-70
2022/11/28 08:01:10;;;;;;;41.17;19.30;;;;;;;;;;5031492;28;20110;-71
2022/11/28 08:03:39;;;;;;;45.78;20.65;;;;;;;;;;5042976;28;20052;-71
2022/11/28 08:06:06;;;;;;;41.17;19.50;;;;;;;;;;5025735;28;20498;-71
2022/11/28 08:08:34;;;;;;;55.58;20.10;;;;;;;;;;5028691;28;20127;-70
2022/11/28 08:11:02;;;;;;;37.92;18.67;;;;;;;;;;5028968;28;20074;-71
2022/11/28 08:13:29;;;;;;;40.47;19.92;;;;;;;;;;5024875;28;20069;-72
2022/11/28 08:15:56;;;;;;;43.08;20.40;;;;;;;;;;5033567;28;20053;-72
2022/11/28 08:18:24;;;;;;;81.85;22.45;;;;;;;;;;5028429;28;20053;-71
2022/11/28 08:20:52;;;;;;;49.50;21.45;;;;;;;;;;5027438;28;20099;-71
2022/11/28 08:23:20;;;;;;;57.40;21.90;;;;;;;;;;5028946;28;20068;-72
2022/11/28 08:25:47;;;;;;;67.28;24.55;;;;;;;;;;5044729;28;20052;-71
2022/11/28 08:28:14;;;;;;;55.75;22.65;;;;;;;;;;5049092;28;20056;-72
2022/11/28 08:30:41;;;;;;;56.58;21.88;;;;;;;;;;5025219;28;20057;-72
2022/11/28 08:33:09;;;;;;;68.72;24.45;;;;;;;;;;5024600;28;20411;-71
2022/11/28 08:35:36;;;;;;;65.38;25.25;;;;;;;;;;5040722;28;20049;-71
2022/11/28 08:38:04;;;;;;;93.00;26.67;;;;;;;;;;5022406;28;20052;-71
2022/11/28 08:40:32;;;;;;;85.63;27.35;;;;;;;;;;5026543;28;20111;-72
2022/11/28 08:42:59;;;;;;;78.63;28.00;;;;;;;;;;5023615;28;20056;-71
2022/11/28 08:45:26;;;;;;;92.07;28.95;;;;;;;;;;5024857;28;20111;-71
2022/11/28 08:47:53;;;;;;;100.10;31.15;;;;;;;;;;5024952;28;20049;-72
2022/11/28 08:50:20;;;;;;;120.75;33.85;;;;;;;;;;5029212;28;20057;-72
2022/11/28 08:52:48;;;;;;;161.18;37.78;;;;;;;;;;5040532;28;20491;-71
2022/11/28 08:55:17;;;;;;;147.63;36.10;;;;;;;;;;5023535;28;20204;-72
2022/11/28 08:57:44;;;;;;;114.00;35.13;;;;;;;;;;5042851;28;20049;-72
2022/11/28 09:00:12;;;;;;;117.50;35.60;;;;;;;;;;5024605;28;20527;-71
2022/11/28 09:02:39;;;;;;;123.30;35.58;;;;;;;;;;5041735;28;20047;-72
2022/11/28 09:05:07;;;;;;;126.93;37.72;;;;;;;;;;5024727;28;20049;-71
2022/11/28 09:07:34;;;;;;;134.35;37.45;;;;;;;;;;5024740;28;20223;-72
2022/11/28 09:10:01;;;;;;;125.03;37.30;;;;;;;;;;5028245;28;20056;-72
2022/11/28 09:12:31;;;;;;;144.43;39.13;;;;;;;;;;5027860;28;20557;-71
2022/11/28 09:14:58;;;;;;;147.20;39.95;;;;;;;;;;5041444;28;20496;-72
2022/11/28 09:17:25;;;;;;;124.38;35.75;;;;;;;;;;5041298;28;20056;-71
2022/11/28 09:19:52;;;;;;;136.57;37.85;;;;;;;;;;5033054;28;20055;-71
2022/11/28 09:22:20;;;;;;;122.78;37.78;;;;;;;;;;5028501;28;20053;-72
2022/11/28 09:24:47;;;;;;;133.60;37.45;;;;;;;;;;5034611;28;20057;-72
2022/11/28 09:27:14;;;;;;;154.27;38.17;;;;;;;;;;5048084;28;20455;-72
2022/11/28 09:29:43;;;;;;;115.90;35.58;;;;;;;;;;5047327;28;20049;-71
2022/11/28 09:32:10;;;;;;;122.45;35.60;;;;;;;;;;5033550;28;20053;-72
2022/11/28 09:34:37;;;;;;;129.48;35.92;;;;;;;;;;5032707;28;20511;-72
2022/11/28 09:37:05;;;;;;;113.28;34.40;;;;;;;;;;5035114;28;20131;-73
2022/11/28 09:39:32;;;;;;;121.70;34.17;;;;;;;;;;5024833;28;20049;-72
2022/11/28 09:42:04;;;;;;;130.05;35.80;;;;;;;;;;5029645;28;20049;-73
2022/11/28 09:44:37;;;;;;;118.20;35.97;;;;;;;;;;5027668;28;21247;-73
2022/11/28 09:47:09;;;;;;;138.33;36.87;;;;;;;;;;5029902;28;20147;-72
2022/11/28 09:49:40;;;;;;;125.00;35.70;;;;;;;;;;5026671;28;20055;-72
2022/11/28 09:52:10;;;;;;;105.88;34.80;;;;;;;;;;5029022;28;20141;-73
2022/11/28 09:54:41;;;;;;;120.60;35.45;;;;;;;;;;5030898;28;20079;-73
2022/11/28 09:57:12;;;;;;;135.50;35.75;;;;;;;;;;5026126;28;20049;-73
2022/11/28 09:59:39;;;;;;;153.38;35.85;;;;;;;;;;5029210;28;20052;-72
2022/11/28 10:02:15;;;;;;;123.60;34.03;;;;;;;;;;5033673;28;20045;-73
2022/11/28 10:04:45;;;;;;;113.47;33.72;;;;;;;;;;5045898;28;20568;-72
2022/11/28 10:07:15;;;;;;;107.15;33.35;;;;;;;;;;5031523;28;20064;-73
2022/11/28 10:09:45;;;;;;;104.05;31.83;;;;;;;;;;5026017;28;20056;-73
2022/11/28 10:12:19;;;;;;;98.15;32.67;;;;;;;;;;5030014;28;20064;-72
2022/11/28 10:14:54;;;;;;;113.32;32.17;;;;;;;;;;5030265;28;20067;-72
2022/11/28 10:17:27;;;;;;;89.28;29.65;;;;;;;;;;5024560;28;20053;-73
2022/11/28 10:19:56;;;;;;;111.30;32.45;;;;;;;;;;5030205;28;20488;-72
2022/11/28 10:22:28;;;;;;;88.53;29.60;;;;;;;;;;5023619;28;20086;-73
2022/11/28 10:24:58;;;;;;;86.30;29.08;;;;;;;;;;5032758;28;20061;-73
2022/11/28 10:27:30;;;;;;;91.95;29.63;;;;;;;;;;5034837;28;20061;-73
2022/11/28 10:30:00;;;;;;;96.35;29.23;;;;;;;;;;5023967;28;20695;-73
2022/11/28 10:32:34;;;;;;;90.97;30.02;;;;;;;;;;5037720;28;20110;-72
2022/11/28 10:35:06;;;;;;;95.35;29.85;;;;;;;;;;5021085;28;20060;-72
2022/11/28 10:37:36;;;;;;;87.15;28.95;;;;;;;;;;5026254;28;20411;-73
2022/11/28 10:40:16;;;;;;;99.80;30.15;;;;;;;;;;5024037;28;20057;-75
2022/11/28 10:42:46;;;;;;;80.85;29.27;;;;;;;;;;5025496;28;20045;-72
2022/11/28 10:45:19;;;;;;;90.03;30.17;;;;;;;;;;5020566;28;20049;-73
2022/11/28 10:48:02;;;;;;;102.35;30.23;;;;;;;;;;5022626;28;20533;-73
2022/11/28 10:50:34;;;;;;;86.00;29.13;;;;;;;;;;5021454;28;20052;-74
2022/11/28 10:53:03;;;;;;;125.72;30.60;;;;;;;;;;5024927;28;20072;-72
2022/11/28 10:55:35;;;;;;;88.88;29.38;;;;;;;;;;5022815;28;20054;-73
2022/11/28 10:58:08;;;;;;;79.47;28.33;;;;;;;;;;5024067;28;20132;-72
2022/11/28 11:00:36;;;;;;;91.30;29.08;;;;;;;;;;5027835;28;21011;-72
2022/11/28 11:03:06;;;;;;;122.78;30.23;;;;;;;;;;5027038;28;20403;-73
2022/11/28 11:05:34;;;;;;;98.93;30.50;;;;;;;;;;5025953;28;20060;-73
2022/11/28 11:08:03;;;;;;;96.00;30.25;;;;;;;;;;5029924;28;20068;-73
2022/11/28 11:10:33;;;;;;;98.80;29.80;;;;;;;;;;5026135;28;20060;-73
2022/11/28 11:13:00;;;;;;;105.90;31.25;;;;;;;;;;5024682;28;20056;-72
2022/11/28 11:15:31;;;;;;;94.78;29.92;;;;;;;;;;5019825;28;20057;-73
2022/11/28 11:17:58;;;;;;;102.45;30.27;;;;;;;;;;5023670;28;20058;-73
2022/11/28 11:20:32;;;;;;;108.35;30.83;;;;;;;;;;5023897;28;20045;-73
2022/11/28 11:23:00;;;;;;;115.32;31.55;;;;;;;;;;5028225;28;20404;-73
2022/11/28 11:25:28;;;;;;;98.78;31.30;;;;;;;;;;5024250;28;20159;-73
2022/11/28 11:27:56;;;;;;;105.55;31.75;;;;;;;;;;5019690;28;20060;-72
2022/11/28 11:30:28;;;;;;;108.22;32.65;;;;;;;;;;5023946;28;20061;-73
2022/11/28 11:32:55;;;;;;;128.65;32.50;;;;;;;;;;5026371;28;20052;-72
2022/11/28 11:35:24;;;;;;;147.38;34.65;;;;;;;;;;5021851;28;20371;-73
2022/11/28 11:37:53;;;;;;;102.63;31.25;;;;;;;;;;5024184;28;20049;-72
2022/11/28 11:40:26;;;;;;;127.45;32.72;;;;;;;;;;5024482;28;20045;-73
2022/11/28 11:42:53;;;;;;;;;;;;;;;;;;5023438;28;20049;-73
2022/11/28 11:45:26;;;;;;;123.90;31.67;;;;;;;;;;5021581;28;20356;-73
2022/11/28 11:47:53;;;;;;;95.82;29.73;;;;;;;;;;5020611;28;20045;-73
2022/11/28 11:50:22;;;;;;;102.95;29.85;;;;;;;;;;5028469;28;20489;-72
2022/11/28 11:53:02;;;;;;;104.22;30.73;;;;;;;;;;5026068;28;20407;-73
2022/11/28 11:55:30;;;;;;;133.48;32.13;;;;;;;;;;5026462;28;20403;-73
2022/11/28 11:57:59;;;;;;;92.93;28.23;;;;;;;;;;5024602;28;20064;-73
2022/11/28 12:00:28;;;;;;;116.75;30.42;;;;;;;;;;5026091;28;20056;-72
2022/11/28 12:02:57;;;;;;;159.55;32.47;;;;;;;;;;5026310;28;20415;-72
2022/11/28 12:05:27;;;;;;;99.65;30.40;;;;;;;;;;5024038;28;20416;-73
2022/11/28 12:07:58;;;;;;;98.78;29.95;;;;;;;;;;5024465;28;20088;-73
2022/11/28 12:10:27;;;;;;;102.28;29.83;;;;;;;;;;5025498;28;20053;-73
2022/11/28 12:12:55;;;;;;;101.40;29.95;;;;;;;;;;5024823;28;20052;-73
2022/11/28 12:15:28;;;;;;;103.07;29.77;;;;;;;;;;5017937;28;20072;-73
2022/11/28 12:18:04;;;;;;;104.82;30.45;;;;;;;;;;5023480;28;20041;-72
2022/11/28 12:20:46;;;;;;;100.55;30.02;;;;;;;;;;5021735;28;20849;-73
2022/11/28 12:23:25;;;;;;;145.52;33.22;;;;;;;;;;5020457;28;20060;-72
2022/11/28 12:25:56;;;;;;;111.70;31.17;;;;;;;;;;5021631;28;20057;-73
2022/11/28 12:28:31;;;;;;;106.18;29.95;;;;;;;;;;5027215;28;20057;-73
2022/11/28 12:31:03;;;;;;;99.85;29.92;;;;;;;;;;5027819;28;20397;-73
2022/11/28 12:33:37;;;;;;;113.30;30.55;;;;;;;;;;5028043;28;20504;-73
2022/11/28 12:36:07;;;;;;;110.53;31.13;;;;;;;;;;5031389;28;20132;-73
2022/11/28 12:38:40;;;;;;;116.53;30.60;;;;;;;;;;5023739;28;20061;-73
2022/11/28 12:41:14;;;;;;;116.22;31.75;;;;;;;;;;5019296;28;20049;-74
2022/11/28 12:43:51;;;;;;;114.97;30.92;;;;;;;;;;5022573;28;20057;-72
2022/11/28 12:46:22;;;;;;;118.82;31.58;;;;;;;;;;5021383;28;20060;-73
2022/11/28 12:48:57;;;;;;;110.07;29.10;;;;;;;;;;5025061;28;20053;-73
2022/11/28 12:51:31;;;;;;;118.47;30.70;;;;;;;;;;5022112;28;20084;-73
2022/11/28 12:54:02;;;;;;;118.60;30.10;;;;;;;;;;5023468;28;20050;-73
2022/11/28 12:56:37;;;;;;;140.82;33.05;;;;;;;;;;5024788;28;20049;-73
2022/11/28 12:59:09;;;;;;;133.40;31.13;;;;;;;;;;5024785;28;20540;-73
2022/11/28 13:01:46;;;;;;;119.97;31.58;;;;;;;;;;5020931;28;20536;-73
2022/11/28 13:04:21;;;;;;;115.50;30.20;;;;;;;;;;5015957;28;20061;-73
2022/11/28 13:06:52;;;;;;;139.95;32.00;;;;;;;;;;5026005;28;20459;-74
2022/11/28 13:09:26;;;;;;;123.25;32.13;;;;;;;;;;5026881;28;20042;-73
2022/11/28 13:11:59;;;;;;;127.38;29.48;;;;;;;;;;5022961;28;20050;-74
2022/11/28 13:14:30;;;;;;;146.18;33.70;;;;;;;;;;5022562;28;21007;-73
2022/11/28 13:16:59;;;;;;;113.47;31.67;;;;;;;;;;5022296;28;20057;-74
2022/11/28 13:19:30;;;;;;;143.85;32.45;;;;;;;;;;5026055;28;20045;-74
2022/11/28 13:22:04;;;;;;;118.05;31.75;;;;;;;;;;5022755;28;20507;-73
2022/11/28 13:24:34;;;;;;;138.02;31.45;;;;;;;;;;5028358;28;20060;-73
2022/11/28 13:27:07;;;;;;;129.10;31.73;;;;;;;;;;5026656;28;20048;-73
2022/11/28 13:29:39;;;;;;;124.82;31.80;;;;;;;;;;5027204;28;20053;-73
2022/11/28 13:32:10;;;;;;;122.05;31.00;;;;;;;;;;5028642;28;20148;-73
2022/11/28 13:34:38;;;;;;;153.45;31.85;;;;;;;;;;5033340;28;20044;-73
2022/11/28 13:37:10;;;;;;;137.90;32.35;;;;;;;;;;5031894;28;20091;-74
2022/11/28 13:39:40;;;;;;;137.05;32.53;;;;;;;;;;5029684;28;20056;-74
2022/11/28 13:42:16;;;;;;;148.02;34.33;;;;;;;;;;5036291;28;20052;-73
2022/11/28 13:44:46;;;;;;;151.65;34.70;;;;;;;;;;5032196;28;20063;-74
2022/11/28 13:47:15;;;;;;;177.27;35.17;;;;;;;;;;5038259;28;20057;-73
2022/11/28 13:49:42;;;;;;;160.73;34.83;;;;;;;;;;5031332;28;20102;-73
2022/11/28 13:52:30;;;;;;;153.40;32.85;;;;;;;;;;5031549;28;20139;-74
2022/11/28 13:54:57;;;;;;;136.77;31.23;;;;;;;;;;5025330;28;20056;-74
2022/11/28 13:57:27;;;;;;;146.63;31.90;;;;;;;;;;5030764;28;20049;-74
2022/11/28 14:00:03;;;;;;;191.82;35.13;;;;;;;;;;5031147;28;20053;-74
2022/11/28 14:02:35;;;;;;;159.57;32.17;;;;;;;;;;5031825;28;20131;-73
2022/11/28 14:05:03;;;;;;;155.70;31.65;;;;;;;;;;5047084;28;20048;-74
2022/11/28 14:07:32;;;;;;;158.20;30.02;;;;;;;;;;5047673;28;20072;-74
2022/11/28 14:10:16;;;;;;;150.52;31.20;;;;;;;;;;5035048;28;20071;-73
2022/11/28 14:12:51;;;;;;;154.27;30.35;;;;;;;;;;5046722;28;20061;-74
2022/11/28 14:15:23;;;;;;;174.00;31.75;;;;;;;;;;5032505;28;20052;-73
2022/11/28 14:17:57;;;;;;;163.87;32.40;;;;;;;;;;5027681;28;20045;-74
2022/11/28 14:20:28;;;;;;;258.27;35.00;;;;;;;;;;5030651;28;20797;-74
2022/11/28 14:23:10;;;;;;;195.57;31.63;;;;;;;;;;5030085;28;20524;-74
2022/11/28 14:25:41;;;;;;;208.68;32.60;;;;;;;;;;5026361;28;20056;-73
2022/11/28 14:28:17;;;;;;;208.18;33.63;;;;;;;;;;5032454;28;20052;-74